createdAt,value
2022-08-22T00:00:37.319Z,15.27
2022-08-22T00:02:53.348Z,16.00
2022-08-22T00:02:57.070Z,16.49
2022-08-22T00:02:57.904Z,15.22
2022-08-22T00:03:00.886Z,15.70
2022-08-22T00:03:10.647Z,15.21
2022-08-22T00:03:25.066Z,15.19
2022-08-22T00:05:45.989Z,15.13
2022-08-22T00:08:27.803Z,15.23
2022-08-22T00:11:13.238Z,15.22
2022-08-22T00:13:43.490Z,15.12
2022-08-22T00:16:19.787Z,15.12
2022-08-22T00:18:50.041Z,15.13
2022-08-22T00:21:20.858Z,15.21
2022-08-22T00:23:58.174Z,15.07
2022-08-22T00:26:34.869Z,15.07
2022-08-22T00:29:07.735Z,15.12
2022-08-22T00:31:38.012Z,14.98
2022-08-22T00:34:22.052Z,14.98
2022-08-22T00:37:04.281Z,14.95
2022-08-22T00:39:37.299Z,14.98
2022-08-22T00:42:29.316Z,15.07
2022-08-22T00:45:13.103Z,15.09
2022-08-22T00:48:00.115Z,14.96
2022-08-22T00:50:31.763Z,14.91
2022-08-22T00:53:04.900Z,14.96
2022-08-22T00:55:35.286Z,14.89
2022-08-22T00:58:21.915Z,14.87
2022-08-22T01:00:56.060Z,14.84
2022-08-22T01:03:29.537Z,14.83
2022-08-22T01:06:12.056Z,14.74
2022-08-22T01:08:44.984Z,14.74
2022-08-22T01:11:16.857Z,14.80
2022-08-22T01:14:02.086Z,14.88
2022-08-22T01:16:44.241Z,14.76
2022-08-22T01:19:14.550Z,14.81
2022-08-22T01:21:53.814Z,14.79
2022-08-22T01:24:26.800Z,14.75
2022-08-22T01:26:57.039Z,14.73
2022-08-22T01:29:44.534Z,14.66
2022-08-22T01:32:31.070Z,14.59
2022-08-22T01:35:01.314Z,14.67
2022-08-22T01:37:37.966Z,14.61
2022-08-22T01:40:24.828Z,14.63
2022-08-22T01:42:59.421Z,14.50
2022-08-22T01:45:29.662Z,14.52
2022-08-22T01:48:02.766Z,14.60
2022-08-22T01:50:33.006Z,14.70
2022-08-22T01:53:16.235Z,14.62
2022-08-22T01:56:03.376Z,14.73
2022-08-22T01:58:33.627Z,14.68
2022-08-22T02:01:16.590Z,14.61
2022-08-22T02:03:47.100Z,14.59
2022-08-22T02:06:20.283Z,14.52
2022-08-22T02:08:53.928Z,14.59
2022-08-22T02:11:33.161Z,14.52
2022-08-22T02:14:03.403Z,14.60
2022-08-22T02:16:33.709Z,14.53
2022-08-22T02:19:16.235Z,14.55
2022-08-22T02:21:47.058Z,14.52
2022-08-22T02:24:17.297Z,14.56
2022-08-22T02:26:48.521Z,14.55
2022-08-22T02:29:18.918Z,14.60
2022-08-22T02:31:59.240Z,14.52
2022-08-22T02:34:30.594Z,14.47
2022-08-22T02:37:08.006Z,14.40
2022-08-22T02:39:44.039Z,14.58
2022-08-22T02:42:14.266Z,14.43
2022-08-22T02:44:52.315Z,14.51
2022-08-22T02:47:34.720Z,14.53
2022-08-22T02:50:12.197Z,14.38
2022-08-22T02:52:43.147Z,14.31
2022-08-22T02:55:17.848Z,14.32
2022-08-22T02:57:52.536Z,14.37
2022-08-22T03:00:32.309Z,14.44
2022-08-22T03:03:02.902Z,14.33
2022-08-22T03:05:39.142Z,14.45
2022-08-22T03:08:13.796Z,14.48
2022-08-22T03:10:44.048Z,14.43
2022-08-22T03:13:14.279Z,14.31
2022-08-22T03:15:50.638Z,14.40
2022-08-22T03:18:21.825Z,14.28
2022-08-22T03:20:55.004Z,14.26
2022-08-22T03:23:31.366Z,14.26
2022-08-22T03:26:07.440Z,14.27
2022-08-22T03:28:59.137Z,14.31
2022-08-22T03:31:22.312Z,14.35
2022-08-22T03:34:09.238Z,14.26
2022-08-22T03:36:38.046Z,14.28
2022-08-22T03:39:17.412Z,14.17
2022-08-22T03:41:46.884Z,14.29
2022-08-22T03:44:32.210Z,14.12
2022-08-22T03:47:17.775Z,14.18
2022-08-22T03:49:59.369Z,14.04
2022-08-22T03:52:27.441Z,14.20
2022-08-22T03:55:06.577Z,14.05
2022-08-22T03:57:54.914Z,14.13
2022-08-22T04:00:37.305Z,14.18
2022-08-22T04:03:17.006Z,14.12
2022-08-22T04:05:54.427Z,14.11
2022-08-22T04:08:30.673Z,14.07
2022-08-22T04:11:08.714Z,14.13
2022-08-22T04:13:38.970Z,14.00
2022-08-22T04:16:21.347Z,14.06
2022-08-22T04:19:08.193Z,14.25
2022-08-22T04:21:44.527Z,14.12
2022-08-22T04:24:24.449Z,14.12
2022-08-22T04:26:57.337Z,13.98
2022-08-22T04:29:32.112Z,14.12
2022-08-22T04:32:02.355Z,13.99
2022-08-22T04:34:49.294Z,14.02
2022-08-22T04:37:23.350Z,14.06
2022-08-22T04:39:54.122Z,14.06
2022-08-22T04:42:33.128Z,13.99
2022-08-22T04:44:59.076Z,13.98
2022-08-22T04:47:29.585Z,13.97
2022-08-22T04:49:59.835Z,14.04
2022-08-22T04:52:30.101Z,14.20
2022-08-22T04:55:01.010Z,14.16
2022-08-22T04:57:31.241Z,14.02
2022-08-22T05:00:02.818Z,14.00
2022-08-22T05:02:31.551Z,14.05
2022-08-22T05:05:04.841Z,13.89
2022-08-22T05:07:36.716Z,13.94
2022-08-22T05:10:12.967Z,13.94
2022-08-22T05:12:43.663Z,13.91
2022-08-22T05:15:19.031Z,13.88
2022-08-22T05:17:49.012Z,13.94
2022-08-22T05:20:19.924Z,13.88
2022-08-22T05:22:50.178Z,14.00
2022-08-22T05:25:20.453Z,13.94
2022-08-22T05:27:56.261Z,13.97
2022-08-22T05:30:24.607Z,13.84
2022-08-22T05:32:54.853Z,13.93
2022-08-22T05:35:25.129Z,13.87
2022-08-22T05:37:55.428Z,13.84
2022-08-22T05:40:26.183Z,13.69
2022-08-22T05:42:56.136Z,13.81
2022-08-22T05:45:26.484Z,13.89
2022-08-22T05:47:56.729Z,13.74
2022-08-22T05:50:26.964Z,13.72
2022-08-22T05:53:03.384Z,13.86
2022-08-22T05:55:33.639Z,13.89
2022-08-22T05:58:03.891Z,13.73
2022-08-22T06:00:34.167Z,13.73
2022-08-22T06:03:04.389Z,13.66
2022-08-22T06:05:34.646Z,13.74
2022-08-22T06:08:07.657Z,13.67
2022-08-22T06:10:43.714Z,13.77
2022-08-22T06:13:21.995Z,13.68
2022-08-22T06:15:50.170Z,13.71
2022-08-22T06:18:20.889Z,13.62
2022-08-22T06:20:52.109Z,13.68
2022-08-22T06:23:28.523Z,13.74
2022-08-22T06:25:58.775Z,13.58
2022-08-22T06:28:29.311Z,13.62
2022-08-22T06:30:58.405Z,13.57
2022-08-22T06:33:28.461Z,13.62
2022-08-22T06:36:20.520Z,13.61
2022-08-22T06:39:08.325Z,13.62
2022-08-22T06:41:38.620Z,13.68
2022-08-22T06:44:10.580Z,13.78
2022-08-22T06:46:40.787Z,13.74
2022-08-22T06:49:09.999Z,13.77
2022-08-22T06:51:41.064Z,13.91
2022-08-22T06:54:11.382Z,13.83
2022-08-22T06:56:41.565Z,13.99
2022-08-22T06:59:12.008Z,14.04
2022-08-22T07:01:45.292Z,14.04
2022-08-22T07:04:14.591Z,14.11
2022-08-22T07:06:49.240Z,14.07
2022-08-22T07:09:19.678Z,14.20
2022-08-22T07:11:49.336Z,14.16
2022-08-22T07:14:18.818Z,14.16
2022-08-22T07:16:57.991Z,14.12
2022-08-22T07:19:28.393Z,14.12
2022-08-22T07:21:57.399Z,14.12
2022-08-22T07:24:33.700Z,14.32
2022-08-22T07:27:13.203Z,14.38
2022-08-22T07:29:45.318Z,14.31
2022-08-22T07:32:16.241Z,14.35
2022-08-22T07:34:49.492Z,14.43
2022-08-22T07:37:20.626Z,14.51
2022-08-22T07:39:58.004Z,14.49
2022-08-22T07:42:30.259Z,14.43
2022-08-22T07:45:01.907Z,14.51
2022-08-22T07:47:32.166Z,14.50
2022-08-22T07:50:04.197Z,14.51
2022-08-22T07:52:34.451Z,14.56
2022-08-22T07:55:10.793Z,14.43
2022-08-22T07:57:41.322Z,14.47
2022-08-22T08:00:14.343Z,14.48
2022-08-22T08:02:52.935Z,14.49
2022-08-22T08:05:33.106Z,14.52
2022-08-22T08:08:03.414Z,14.57
2022-08-22T08:10:34.455Z,14.56
2022-08-22T08:13:04.691Z,14.55
2022-08-22T08:15:36.269Z,14.56
2022-08-22T08:18:06.900Z,14.61
2022-08-22T08:20:37.105Z,14.67
2022-08-22T08:23:07.361Z,14.70
2022-08-22T08:25:38.878Z,14.85
2022-08-22T08:28:25.632Z,14.84
2022-08-22T08:30:55.891Z,14.85
2022-08-22T08:33:27.365Z,14.85
2022-08-22T08:36:04.045Z,14.94
2022-08-22T08:38:35.432Z,14.91
2022-08-22T08:41:11.916Z,14.93
2022-08-22T08:43:50.937Z,14.99
2022-08-22T08:46:21.262Z,15.04
2022-08-22T08:48:54.222Z,15.04
2022-08-22T08:51:24.577Z,15.16
2022-08-22T08:54:11.279Z,15.13
2022-08-22T08:56:42.768Z,15.13
2022-08-22T08:59:32.000Z,15.25
2022-08-22T09:02:05.591Z,15.27
2022-08-22T09:04:45.580Z,15.40
2022-08-22T09:07:27.706Z,15.32
2022-08-22T09:10:05.534Z,15.28
2022-08-22T09:12:36.534Z,15.30
2022-08-22T09:15:11.782Z,15.35
2022-08-22T09:17:43.326Z,15.28
2022-08-22T09:20:30.544Z,15.34
2022-08-22T09:23:18.293Z,15.46
2022-08-22T09:25:54.646Z,15.44
2022-08-22T09:28:43.075Z,15.54
2022-08-22T09:34:12.838Z,15.65
2022-08-22T09:36:48.377Z,15.61
2022-08-22T09:39:22.551Z,15.66
2022-08-22T09:42:02.734Z,15.81
2022-08-22T09:44:39.659Z,15.81
2022-08-22T09:47:24.650Z,15.65
2022-08-22T09:50:00.155Z,15.72
2022-08-22T09:52:47.647Z,15.85
2022-08-22T09:55:35.389Z,15.82
2022-08-22T09:58:11.341Z,15.92
2022-08-22T10:00:43.613Z,15.83
2022-08-22T10:03:13.897Z,15.90
2022-08-22T10:05:49.883Z,15.91
2022-08-22T10:08:32.702Z,15.95
2022-08-22T10:11:03.070Z,15.91
2022-08-22T10:13:38.426Z,15.77
2022-08-22T10:16:13.372Z,15.85
2022-08-22T10:19:00.793Z,15.91
2022-08-22T10:21:37.239Z,16.01
2022-08-22T10:24:07.730Z,16.07
2022-08-22T10:26:51.197Z,16.02
2022-08-22T10:29:38.320Z,15.98
2022-08-22T10:32:27.133Z,15.94
2022-08-22T10:34:57.704Z,15.99
2022-08-22T10:37:28.945Z,15.92
2022-08-22T10:40:02.530Z,16.05
2022-08-22T10:42:35.272Z,15.97
2022-08-22T10:45:35.081Z,16.02
2022-08-22T10:47:53.505Z,16.11
2022-08-22T10:50:24.002Z,16.13
2022-08-22T10:52:57.498Z,16.10
2022-08-22T10:55:29.801Z,16.17
2022-08-22T10:58:13.349Z,16.10
2022-08-22T11:00:54.048Z,16.17
2022-08-22T11:03:24.994Z,16.20
2022-08-22T11:05:55.896Z,16.19
2022-08-22T11:08:26.669Z,16.14
2022-08-22T11:11:14.868Z,16.12
2022-08-22T11:13:46.745Z,16.18
2022-08-22T11:16:18.770Z,16.23
2022-08-22T11:18:58.031Z,16.27
2022-08-22T11:21:29.243Z,16.20
2022-08-22T11:24:00.478Z,16.29
2022-08-22T11:26:48.985Z,16.22
2022-08-22T11:29:36.822Z,16.40
2022-08-22T11:32:08.244Z,16.41
2022-08-22T11:34:39.719Z,16.44
2022-08-22T11:37:18.974Z,16.39
2022-08-22T11:40:07.732Z,16.46
2022-08-22T11:42:58.349Z,16.36
2022-08-22T11:45:14.893Z,16.46
2022-08-22T11:47:43.305Z,16.48
2022-08-22T11:50:14.147Z,16.42
2022-08-22T11:52:51.516Z,16.45
2022-08-22T11:55:22.069Z,16.46
2022-08-22T11:57:52.323Z,16.40
2022-08-22T12:00:28.432Z,16.59
2022-08-22T12:02:58.893Z,16.48
2022-08-22T12:05:34.579Z,16.58
2022-08-22T12:08:21.836Z,16.69
2022-08-22T12:10:54.449Z,16.61
2022-08-22T12:13:34.907Z,16.69
2022-08-22T12:16:05.781Z,16.59
2022-08-22T12:18:53.069Z,16.62
2022-08-22T12:21:23.499Z,16.65
2022-08-22T12:24:19.258Z,16.74
2022-08-22T12:26:47.391Z,16.70
2022-08-22T12:29:33.434Z,16.75
2022-08-22T12:32:01.631Z,16.69
2022-08-22T12:34:41.623Z,16.63
2022-08-22T12:37:20.861Z,16.79
2022-08-22T12:39:58.954Z,16.79
2022-08-22T12:42:31.945Z,16.77
2022-08-22T12:45:02.388Z,16.74
2022-08-22T12:47:42.147Z,16.68
2022-08-22T12:50:18.694Z,16.77
2022-08-22T12:52:58.114Z,16.77
2022-08-22T12:55:33.131Z,16.72
2022-08-22T12:58:08.427Z,16.63
2022-08-22T13:00:43.082Z,16.64
2022-08-22T13:03:32.802Z,16.72
2022-08-22T13:06:13.777Z,16.63
2022-08-22T13:08:41.236Z,16.63
2022-08-22T13:11:22.591Z,16.68
2022-08-22T13:13:43.327Z,16.57
2022-08-22T13:16:15.690Z,16.58
2022-08-22T13:18:56.688Z,16.60
2022-08-22T13:21:34.674Z,16.73
2022-08-22T13:24:01.779Z,16.74
2022-08-22T13:26:35.294Z,16.66
2022-08-22T13:31:39.937Z,16.90
2022-08-22T13:34:10.280Z,16.93
2022-08-22T13:36:51.582Z,16.95
2022-08-22T13:39:16.827Z,16.83
2022-08-22T13:41:51.626Z,16.93
2022-08-22T13:44:27.672Z,16.78
2022-08-22T13:47:13.984Z,16.85
2022-08-22T13:49:56.502Z,16.95
2022-08-22T13:52:32.825Z,16.97
2022-08-22T13:55:04.724Z,16.93
2022-08-22T13:57:36.641Z,16.95
2022-08-22T14:00:28.900Z,16.98
2022-08-22T14:02:56.659Z,16.98
2022-08-22T14:05:26.931Z,17.09
2022-08-22T14:07:59.902Z,17.07
2022-08-22T14:10:32.227Z,17.02
2022-08-22T14:13:03.891Z,17.19
2022-08-22T14:15:44.654Z,17.11
2022-08-22T14:18:12.999Z,17.17
2022-08-22T14:20:42.499Z,17.19
2022-08-22T14:23:12.916Z,17.18
2022-08-22T14:25:43.591Z,17.20
2022-08-22T14:28:13.855Z,17.26
2022-08-22T14:30:44.572Z,17.18
2022-08-22T14:33:15.803Z,17.17
2022-08-22T14:35:52.689Z,17.22
2022-08-22T14:38:30.624Z,17.23
2022-08-22T14:41:02.092Z,17.23
2022-08-22T14:43:40.538Z,17.44
2022-08-22T14:46:08.304Z,17.43
2022-08-22T14:48:52.444Z,17.31
2022-08-22T14:51:24.144Z,17.40
2022-08-22T14:53:53.277Z,17.38
2022-08-22T14:56:23.518Z,17.42
2022-08-22T14:58:55.434Z,17.41
2022-08-22T15:01:25.682Z,17.39
2022-08-22T15:03:55.896Z,17.36
2022-08-22T15:06:38.306Z,17.51
2022-08-22T15:09:10.179Z,17.30
2022-08-22T15:11:42.153Z,17.29
2022-08-22T15:14:15.627Z,17.17
2022-08-22T15:16:47.679Z,17.27
2022-08-22T15:19:31.367Z,17.35
2022-08-22T15:22:11.384Z,17.34
2022-08-22T15:24:42.920Z,17.38
2022-08-22T15:27:12.640Z,17.36
2022-08-22T15:29:46.149Z,17.30
2022-08-22T15:32:17.095Z,17.35
2022-08-22T15:34:49.371Z,17.39
2022-08-22T15:37:21.285Z,17.27
2022-08-22T15:40:02.950Z,17.18
2022-08-22T15:42:32.744Z,17.25
2022-08-22T15:45:02.306Z,17.16
2022-08-22T15:47:41.647Z,17.33
2022-08-22T15:50:15.285Z,17.22
2022-08-22T15:53:04.850Z,17.17
2022-08-22T15:55:31.843Z,17.20
2022-08-22T15:58:04.604Z,17.16
2022-08-22T16:00:34.943Z,17.35
2022-08-22T16:03:11.072Z,17.33
2022-08-22T16:05:55.001Z,17.27
2022-08-22T16:08:22.759Z,17.33
2022-08-22T16:11:05.258Z,17.26
2022-08-22T16:13:38.259Z,17.34
2022-08-22T16:16:07.836Z,17.44
2022-08-22T16:18:45.353Z,17.34
2022-08-22T16:21:15.746Z,17.28
2022-08-22T16:23:49.741Z,17.24
2022-08-22T16:26:19.795Z,17.36
2022-08-22T16:28:59.240Z,17.38
2022-08-22T16:31:35.440Z,17.29
2022-08-22T16:34:20.895Z,17.46
2022-08-22T16:37:06.103Z,17.33
2022-08-22T16:39:39.511Z,17.28
2022-08-22T16:42:24.618Z,17.26
2022-08-22T16:45:00.245Z,17.34
2022-08-22T16:47:33.415Z,17.25
2022-08-22T16:50:09.124Z,17.33
2022-08-22T16:52:41.462Z,17.26
2022-08-22T16:55:29.571Z,17.34
2022-08-22T16:58:13.104Z,17.32
2022-08-22T17:00:57.563Z,17.20
2022-08-22T17:03:36.902Z,17.17
2022-08-22T17:06:13.370Z,17.37
2022-08-22T17:08:46.423Z,17.16
2022-08-22T17:11:16.670Z,17.19
2022-08-22T17:13:50.128Z,17.21
2022-08-22T17:16:20.377Z,17.19
2022-08-22T17:18:50.720Z,17.29
2022-08-22T17:21:26.070Z,17.15
2022-08-22T17:23:55.703Z,17.22
2022-08-22T17:26:29.006Z,17.29
2022-08-22T17:29:02.352Z,17.29
2022-08-22T17:31:36.486Z,17.21
2022-08-22T17:34:22.144Z,17.10
2022-08-22T17:36:53.179Z,17.18
2022-08-22T17:39:32.727Z,17.08
2022-08-22T17:42:08.875Z,17.06
2022-08-22T17:44:42.287Z,17.07
2022-08-22T17:47:16.082Z,17.08
2022-08-22T17:49:46.489Z,17.17
2022-08-22T17:52:22.579Z,17.09
2022-08-22T17:55:01.975Z,17.06
2022-08-22T17:57:34.986Z,17.04
2022-08-22T18:00:10.001Z,16.99
2022-08-22T18:02:40.291Z,16.98
2022-08-22T18:05:16.936Z,17.02
2022-08-22T18:07:47.160Z,17.00
2022-08-22T18:10:17.497Z,16.92
2022-08-22T18:13:07.173Z,17.12
2022-08-22T18:15:36.727Z,16.98
2022-08-22T18:18:07.608Z,16.88
2022-08-22T18:20:47.150Z,17.04
2022-08-22T18:23:21.687Z,16.97
2022-08-22T18:25:50.907Z,16.99
2022-08-22T18:28:24.511Z,16.98
2022-08-22T18:31:02.005Z,17.02
2022-08-22T18:33:35.147Z,16.93
2022-08-22T18:36:14.577Z,16.90
2022-08-22T18:38:51.644Z,16.92
2022-08-22T18:41:24.637Z,16.88
2022-08-22T18:43:55.253Z,16.96
2022-08-22T18:46:33.837Z,17.07
2022-08-22T18:49:19.590Z,17.00
2022-08-22T18:51:38.901Z,16.98
2022-08-22T18:54:10.687Z,16.98
2022-08-22T18:56:54.199Z,16.92
2022-08-22T18:59:24.904Z,17.00
2022-08-22T19:01:57.928Z,16.94
2022-08-22T19:04:28.153Z,16.99
2022-08-22T19:07:07.309Z,17.02
2022-08-22T19:09:41.756Z,16.95
2022-08-22T19:12:17.966Z,17.05
2022-08-22T19:14:57.717Z,16.98
2022-08-22T19:17:30.685Z,17.09
2022-08-22T19:20:24.419Z,16.93
2022-08-22T19:22:54.800Z,16.96
2022-08-22T19:25:27.517Z,16.89
2022-08-22T19:27:57.747Z,16.91
2022-08-22T19:30:36.996Z,16.83
2022-08-22T19:33:10.920Z,16.82
2022-08-22T19:35:54.507Z,16.85
2022-08-22T19:38:41.558Z,16.93
2022-08-22T19:41:10.446Z,16.89
2022-08-22T19:43:41.457Z,16.89
2022-08-22T19:46:13.215Z,16.85
2022-08-22T19:48:44.654Z,16.91
2022-08-22T19:51:14.978Z,16.92
2022-08-22T19:53:48.492Z,16.89
2022-08-22T19:56:18.744Z,16.85
2022-08-22T19:58:50.767Z,16.82
2022-08-22T20:01:27.663Z,16.86
2022-08-22T20:03:58.115Z,16.83
2022-08-22T20:06:45.013Z,16.79
2022-08-22T20:09:18.426Z,16.72
2022-08-22T20:11:52.480Z,16.72
2022-08-22T20:14:30.382Z,16.75
2022-08-22T20:16:54.830Z,16.83
2022-08-22T20:19:23.742Z,16.81
2022-08-22T20:21:58.346Z,16.68
2022-08-22T20:24:32.348Z,16.69
2022-08-22T20:27:13.865Z,16.78
2022-08-22T20:29:36.036Z,16.78
2022-08-22T20:32:07.190Z,16.74
2022-08-22T20:34:37.788Z,16.82
2022-08-22T20:37:29.343Z,16.79
2022-08-22T20:39:40.463Z,16.65
2022-08-22T20:42:10.738Z,16.85
2022-08-22T20:44:41.046Z,16.83
2022-08-22T20:47:13.289Z,16.85
2022-08-22T20:49:45.251Z,16.86
2022-08-22T20:52:30.327Z,16.88
2022-08-22T20:55:00.559Z,16.91
2022-08-22T20:57:29.743Z,16.83
2022-08-22T21:00:10.023Z,16.85
2022-08-22T21:02:52.768Z,16.86
2022-08-22T21:05:23.330Z,16.75
2022-08-22T21:10:55.696Z,16.91
2022-08-22T21:13:25.919Z,16.90
2022-08-22T21:15:59.351Z,16.88
2022-08-22T21:18:32.938Z,16.79
2022-08-22T21:21:07.129Z,16.82
2022-08-22T21:23:38.705Z,16.73
2022-08-22T21:26:11.759Z,16.78
2022-08-22T21:28:58.703Z,16.85
2022-08-22T21:31:37.846Z,16.79
2022-08-22T21:34:08.127Z,16.87
2022-08-22T21:36:38.306Z,16.93
2022-08-22T21:39:08.614Z,16.85
2022-08-22T21:41:41.806Z,16.87
2022-08-22T21:44:27.041Z,16.88
2022-08-22T21:46:56.650Z,16.79
2022-08-22T21:49:26.980Z,16.80
2022-08-22T21:51:56.315Z,16.81
2022-08-22T21:54:29.820Z,16.81
2022-08-22T21:57:00.151Z,16.75
2022-08-22T21:59:51.037Z,16.81
2022-08-22T22:02:02.248Z,17.01
2022-08-22T22:04:32.369Z,16.85
2022-08-22T22:07:02.419Z,17.00
2022-08-22T22:09:31.185Z,16.94
2022-08-22T22:11:59.887Z,16.89
2022-08-22T22:14:29.721Z,17.09
2022-08-22T22:16:58.513Z,16.84
2022-08-22T22:19:28.353Z,16.86
2022-08-22T22:21:57.037Z,16.83
2022-08-22T22:24:25.787Z,16.92
2022-08-22T22:26:54.629Z,16.91
2022-08-22T22:29:23.431Z,16.98
2022-08-22T22:31:52.572Z,16.87
2022-08-22T22:34:21.283Z,16.89
2022-08-22T22:36:50.195Z,17.00
2022-08-22T22:39:18.893Z,16.95
2022-08-22T22:41:47.623Z,16.90
2022-08-22T22:44:16.475Z,16.84
2022-08-22T22:46:45.194Z,16.97
2022-08-22T22:49:13.912Z,16.86
2022-08-22T22:51:42.691Z,16.83
2022-08-22T22:54:12.425Z,16.85
2022-08-22T22:56:42.832Z,16.83
2022-08-22T22:59:14.623Z,16.90
2022-08-22T23:02:02.398Z,16.94
2022-08-22T23:04:32.114Z,16.99
2022-08-22T23:07:01.203Z,17.14
2022-08-22T23:09:37.957Z,17.15
2022-08-22T23:12:01.192Z,16.98
2022-08-22T23:14:30.679Z,17.03
2022-08-22T23:16:59.927Z,17.07
2022-08-22T23:19:30.310Z,17.01
2022-08-22T23:22:01.208Z,16.94
2022-08-22T23:24:31.280Z,17.18
2022-08-22T23:27:00.261Z,17.05
2022-08-22T23:29:29.008Z,17.04
2022-08-22T23:31:59.415Z,17.00
2022-08-22T23:34:32.632Z,16.93
2022-08-22T23:37:02.959Z,17.00
2022-08-22T23:39:34.710Z,16.96
2022-08-22T23:42:04.622Z,17.03
2022-08-22T23:44:34.419Z,17.04
2022-08-22T23:47:03.603Z,17.00
2022-08-22T23:49:32.584Z,17.11
2022-08-22T23:52:01.467Z,17.08
2022-08-22T23:54:30.183Z,17.07
2022-08-22T23:57:00.689Z,17.03
2022-08-22T23:59:30.993Z,17.05
